Compton, Arkansas
Current Conditions -  °F | °C
As of 3:53 PM on Monday 20 Oct 2014 (Local Time) from KHRO Reporting Station
Overcast Overcast  
Wind Chill: 70°   Ceiling: 5500
Heat Index: 70°   Visibility: 9mi
Dew Point: 58°   Wind: 5mph
Humidity: 65%   Direction: NA
Pressure: 30.03"   Gusts: NA
Location:  36.1°N, 93.3°W
Report Text: KHRO 202053Z AUTO VRB04KT 9SM SCT041 OVC055 21/14 A3003 RMK AO2 SLP162 T02110144 56011
Loading
Personal Weather Stations






























Interactive Weather Map
Tropical Storm Tracking
New forecast layout! Learn more

10-Day Weather Forecast

Advertisements
Track Severe Weather on mobile